createdAt,value
2023-03-22T00:02:23.181Z,10.60
2023-03-22T00:06:05.778Z,10.60
2023-03-22T00:09:47.695Z,10.70
2023-03-22T00:13:29.962Z,10.70
2023-03-22T00:17:11.880Z,10.60
2023-03-22T00:20:56.196Z,10.60
2023-03-22T00:24:38.356Z,10.60
2023-03-22T00:28:20.281Z,10.60
2023-03-22T00:32:02.986Z,10.60
2023-03-22T00:35:52.458Z,10.60
2023-03-22T00:39:34.354Z,10.60
2023-03-22T00:43:16.891Z,10.60
2023-03-22T00:46:58.998Z,10.70
2023-03-22T00:50:41.346Z,10.60
2023-03-22T00:54:23.271Z,10.60
2023-03-22T00:58:05.608Z,10.60
2023-03-22T01:01:47.538Z,10.60
2023-03-22T01:05:34.993Z,10.60
2023-03-22T01:09:16.859Z,10.60
2023-03-22T01:12:58.796Z,10.60
2023-03-22T01:16:41.009Z,10.60
2023-03-22T01:20:23.954Z,10.50
2023-03-22T01:24:06.117Z,10.50
2023-03-22T01:27:48.052Z,10.50
2023-03-22T01:31:30.018Z,10.50
2023-03-22T01:35:11.962Z,10.50
2023-03-22T01:38:53.912Z,10.50
2023-03-22T01:42:35.962Z,10.50
2023-03-22T01:46:18.090Z,10.50
2023-03-22T01:50:00.024Z,10.50
2023-03-22T01:53:56.388Z,10.40
2023-03-22T01:57:40.049Z,10.40
2023-03-22T02:01:22.645Z,10.40
2023-03-22T02:05:05.086Z,10.40
2023-03-22T02:08:47.108Z,10.40
2023-03-22T02:12:39.813Z,10.40
2023-03-22T02:16:57.263Z,10.40
2023-03-22T02:20:45.365Z,10.40
2023-03-22T02:24:30.233Z,10.50
2023-03-22T02:28:40.529Z,10.50
2023-03-22T02:33:00.747Z,10.50
2023-03-22T02:37:13.508Z,10.40
2023-03-22T02:41:01.683Z,10.50
2023-03-22T02:44:54.111Z,10.50
2023-03-22T02:48:53.329Z,10.50
2023-03-22T02:52:55.391Z,10.50
2023-03-22T02:56:47.057Z,10.50
2023-03-22T03:00:30.521Z,10.40
2023-03-22T03:04:21.605Z,10.40
2023-03-22T03:08:04.581Z,10.40
2023-03-22T03:11:52.228Z,10.30
2023-03-22T03:15:34.203Z,10.30
2023-03-22T03:19:33.070Z,10.30
2023-03-22T03:23:24.541Z,10.30
2023-03-22T03:27:21.943Z,10.40
2023-03-22T03:31:10.948Z,10.30
2023-03-22T03:35:22.589Z,10.40
2023-03-22T03:39:09.248Z,10.40
2023-03-22T03:42:54.223Z,10.40
2023-03-22T03:46:36.409Z,10.40
2023-03-22T03:50:18.468Z,10.40
2023-03-22T03:54:00.429Z,10.40
2023-03-22T03:57:42.331Z,10.40
2023-03-22T04:01:26.445Z,10.50
2023-03-22T04:05:09.296Z,10.50
2023-03-22T04:08:53.787Z,10.60
2023-03-22T04:12:36.018Z,10.50
2023-03-22T04:16:17.971Z,10.60
2023-03-22T04:19:59.947Z,10.60
2023-03-22T04:23:41.860Z,10.70
2023-03-22T04:27:23.796Z,10.70
2023-03-22T04:31:07.016Z,10.70
2023-03-22T04:34:49.938Z,10.70
2023-03-22T04:38:31.931Z,10.70
2023-03-22T04:42:13.868Z,10.70
2023-03-22T04:45:58.276Z,10.70
2023-03-22T04:49:40.405Z,10.70
2023-03-22T04:53:27.248Z,10.80
2023-03-22T04:57:09.249Z,10.80
2023-03-22T05:00:55.523Z,10.80
2023-03-22T05:04:37.458Z,10.80
2023-03-22T05:08:20.992Z,10.80
2023-03-22T05:12:02.952Z,10.90
2023-03-22T05:15:45.732Z,10.90
2023-03-22T05:19:27.688Z,10.90
2023-03-22T05:23:10.370Z,10.90
2023-03-22T05:26:54.067Z,10.90
2023-03-22T05:30:36.263Z,10.90
2023-03-22T05:34:20.444Z,11.00
2023-03-22T05:38:02.512Z,11.00
2023-03-22T05:41:44.769Z,11.00
2023-03-22T05:45:27.279Z,11.10
2023-03-22T05:49:10.552Z,11.10
2023-03-22T05:52:54.184Z,11.10
2023-03-22T05:56:36.371Z,11.10
2023-03-22T06:00:19.085Z,11.10
2023-03-22T06:04:01.562Z,11.20
2023-03-22T06:07:44.520Z,11.20
2023-03-22T06:11:26.661Z,11.20
2023-03-22T06:15:10.146Z,11.20
2023-03-22T06:18:52.036Z,11.10
2023-03-22T06:22:33.911Z,11.20
2023-03-22T06:26:15.841Z,11.20
2023-03-22T06:29:57.784Z,11.20
2023-03-22T06:33:39.741Z,11.20
2023-03-22T06:37:22.252Z,11.30
2023-03-22T06:41:04.400Z,11.30
2023-03-22T06:44:46.465Z,11.40
2023-03-22T06:48:28.483Z,11.40
2023-03-22T06:52:10.380Z,11.40
2023-03-22T06:55:55.227Z,11.40
2023-03-22T06:59:37.511Z,11.40
2023-03-22T07:03:19.866Z,11.40
2023-03-22T07:07:01.747Z,11.30
2023-03-22T07:10:44.017Z,11.30
2023-03-22T07:14:25.992Z,11.20
2023-03-22T07:18:08.611Z,11.10
2023-03-22T07:21:50.861Z,11.20
2023-03-22T07:25:32.814Z,11.20
2023-03-22T07:29:14.690Z,11.20
2023-03-22T07:32:56.719Z,11.20
2023-03-22T07:36:38.687Z,11.20
2023-03-22T07:40:20.690Z,11.20
2023-03-22T07:44:16.903Z,11.30
2023-03-22T07:47:59.681Z,11.40
2023-03-22T07:51:41.756Z,11.50
2023-03-22T07:55:24.051Z,11.60
2023-03-22T07:59:06.451Z,11.70
2023-03-22T08:02:48.552Z,11.70
2023-03-22T08:06:33.172Z,11.70
2023-03-22T08:10:16.029Z,11.80
2023-03-22T08:13:57.899Z,11.80
2023-03-22T08:17:39.908Z,12.00
2023-03-22T08:21:21.815Z,12.20
2023-03-22T08:25:07.342Z,12.20
2023-03-22T08:28:49.204Z,12.20
2023-03-22T08:32:31.194Z,12.20
2023-03-22T08:36:16.464Z,12.20
2023-03-22T08:39:58.611Z,12.20
2023-03-22T08:43:40.569Z,12.20
2023-03-22T08:47:22.520Z,12.20
2023-03-22T08:51:06.575Z,12.20
2023-03-22T08:54:48.633Z,12.30
2023-03-22T08:58:30.835Z,12.90
2023-03-22T09:02:13.217Z,13.50
2023-03-22T09:05:55.418Z,14.30
2023-03-22T09:09:37.442Z,15.10
2023-03-22T09:13:20.209Z,16.00
2023-03-22T09:17:02.326Z,17.20
2023-03-22T09:20:46.026Z,18.00
2023-03-22T09:24:27.973Z,18.60
2023-03-22T09:28:10.613Z,19.00
2023-03-22T09:31:53.584Z,19.40
2023-03-22T09:35:35.743Z,19.90
2023-03-22T09:39:17.844Z,20.50
2023-03-22T09:43:04.226Z,21.10
2023-03-22T09:46:50.033Z,22.00
2023-03-22T09:50:33.586Z,23.00
2023-03-22T09:54:34.153Z,23.40
2023-03-22T09:58:51.595Z,23.60
2023-03-22T10:02:43.524Z,23.90
2023-03-22T10:06:28.287Z,24.20
2023-03-22T10:10:21.782Z,25.00
2023-03-22T10:14:38.382Z,25.30
2023-03-22T10:18:25.171Z,24.90
2023-03-22T10:22:09.906Z,24.80
2023-03-22T10:25:53.125Z,24.50
2023-03-22T10:29:43.788Z,24.20
2023-03-22T10:33:38.507Z,24.80
2023-03-22T10:37:26.814Z,25.50
2023-03-22T10:41:09.810Z,25.50
2023-03-22T10:45:01.544Z,24.70
2023-03-22T10:48:46.016Z,24.40
2023-03-22T10:52:30.760Z,24.50
2023-03-22T10:56:20.115Z,24.70
2023-03-22T11:00:11.484Z,25.10
2023-03-22T11:03:58.172Z,24.70
2023-03-22T11:07:44.392Z,23.70
2023-03-22T11:11:27.696Z,23.90
2023-03-22T11:15:30.088Z,24.50
2023-03-22T11:19:19.154Z,24.60
2023-03-22T11:23:03.897Z,24.30
2023-03-22T11:27:06.371Z,24.10
2023-03-22T11:31:09.936Z,24.30
2023-03-22T11:35:21.537Z,24.40
2023-03-22T11:39:07.959Z,24.40
2023-03-22T11:42:54.134Z,24.60
2023-03-22T11:46:37.727Z,24.40
2023-03-22T11:50:29.622Z,24.40
2023-03-22T11:54:27.215Z,23.50
2023-03-22T11:58:28.964Z,22.50
2023-03-22T12:02:28.515Z,21.90
2023-03-22T12:06:28.692Z,21.30
2023-03-22T12:10:17.015Z,20.70
2023-03-22T12:14:03.822Z,19.80
2023-03-22T12:17:52.840Z,18.70
2023-03-22T12:21:35.409Z,17.70
2023-03-22T12:25:22.357Z,17.00
2023-03-22T12:29:06.779Z,16.50
2023-03-22T12:33:11.756Z,16.00
2023-03-22T12:36:57.455Z,15.70
2023-03-22T12:40:41.493Z,15.60
2023-03-22T12:44:34.093Z,15.50
2023-03-22T12:48:33.394Z,15.30
2023-03-22T12:52:37.646Z,15.20
2023-03-22T12:56:37.007Z,15.00
2023-03-22T13:00:20.841Z,14.80
2023-03-22T13:04:28.086Z,14.60
2023-03-22T13:08:10.384Z,14.50
2023-03-22T13:12:17.226Z,14.50
2023-03-22T13:16:11.220Z,14.70
2023-03-22T13:20:06.964Z,15.00
2023-03-22T13:24:15.503Z,15.20
2023-03-22T13:28:22.448Z,15.40
2023-03-22T13:32:24.547Z,15.60
2023-03-22T13:36:21.230Z,15.70
2023-03-22T13:40:13.584Z,15.80
2023-03-22T13:43:57.732Z,15.80
2023-03-22T13:47:47.079Z,15.60
2023-03-22T13:51:32.193Z,15.40
2023-03-22T13:55:36.467Z,15.20
2023-03-22T13:59:27.459Z,15.00
2023-03-22T14:03:27.147Z,15.00
2023-03-22T14:07:27.353Z,14.90
2023-03-22T14:11:34.748Z,14.80
2023-03-22T14:15:21.640Z,14.70
2023-03-22T14:19:06.472Z,14.60
